Time;durP1;ratioP1;P1;durP2;ratioP2;P2;SDS_P1;SDS_P2;PMS_P1;PMS_P2;Temp;Humidity;BMP_temperature;BMP_pressure;BME280_temperature;BME280_humidity;BME280_pressure;Samples;Min_cycle;Max_cycle;Signal;HPM_P1;HPM_P2
2022/01/07 00:02:06;;;;;;;14.02;7.40;;;;;;;;;;5116523;28;20217;-63
2022/01/07 00:04:36;;;;;;;15.45;7.53;;;;;;;;;;5116738;28;20219;-63
2022/01/07 00:07:03;;;;;;;11.43;7.22;;;;;;;;;;5116559;28;20195;-65
2022/01/07 00:09:30;;;;;;;11.55;7.00;;;;;;;;;;5116571;28;20300;-65
2022/01/07 00:11:59;;;;;;;15.30;8.68;;;;;;;;;;5116441;28;20217;-64
2022/01/07 00:14:26;;;;;;;12.57;5.68;;;;;;;;;;5116069;28;20191;-64
2022/01/07 00:16:53;;;;;;;10.88;6.55;;;;;;;;;;5116094;28;20229;-64
2022/01/07 00:19:21;;;;;;;12.80;6.78;;;;;;;;;;5116854;28;20277;-64
2022/01/07 00:21:49;;;;;;;11.48;6.85;;;;;;;;;;5116237;28;20300;-64
2022/01/07 00:24:17;;;;;;;10.50;6.25;;;;;;;;;;5116296;28;20275;-64
2022/01/07 00:26:44;;;;;;;13.60;7.78;;;;;;;;;;5115851;28;20236;-64
2022/01/07 00:29:11;;;;;;;14.23;5.95;;;;;;;;;;5116109;28;20214;-64
2022/01/07 00:31:38;;;;;;;9.25;6.10;;;;;;;;;;5115292;28;20390;-66
2022/01/07 00:34:06;;;;;;;10.98;5.60;;;;;;;;;;5115641;28;20231;-66
2022/01/07 00:36:33;;;;;;;12.57;6.10;;;;;;;;;;5116001;28;20285;-69
2022/01/07 00:39:02;;;;;;;9.93;6.18;;;;;;;;;;5116152;28;20277;-65
2022/01/07 00:41:29;;;;;;;11.48;7.10;;;;;;;;;;5115573;28;20213;-65
2022/01/07 00:43:56;;;;;;;14.27;5.70;;;;;;;;;;5115843;28;20281;-65
2022/01/07 00:46:23;;;;;;;12.07;5.40;;;;;;;;;;5115557;28;20281;-65
2022/01/07 00:48:51;;;;;;;9.50;5.40;;;;;;;;;;5115842;28;20278;-65
2022/01/07 00:51:18;;;;;;;11.45;5.90;;;;;;;;;;5116188;28;20226;-65
2022/01/07 00:53:45;;;;;;;15.73;5.88;;;;;;;;;;5115469;28;20280;-65
2022/01/07 00:56:14;;;;;;;11.27;5.80;;;;;;;;;;5115766;28;20282;-65
2022/01/07 00:58:41;;;;;;;7.38;6.05;;;;;;;;;;5115308;28;20231;-66
2022/01/07 01:01:08;;;;;;;11.13;5.63;;;;;;;;;;5115259;28;20275;-66
2022/01/07 01:03:35;;;;;;;7.32;4.70;;;;;;;;;;5115449;28;20266;-66
2022/01/07 01:06:03;;;;;;;11.88;5.55;;;;;;;;;;5116051;28;20187;-66
2022/01/07 01:08:30;;;;;;;18.58;6.25;;;;;;;;;;5115351;28;20306;-66
2022/01/07 01:10:57;;;;;;;12.23;5.10;;;;;;;;;;5115359;28;20191;-66
2022/01/07 01:13:26;;;;;;;12.63;5.70;;;;;;;;;;5115382;28;20199;-66
2022/01/07 01:15:53;;;;;;;10.45;5.35;;;;;;;;;;5115347;28;20195;-66
2022/01/07 01:18:21;;;;;;;8.50;4.70;;;;;;;;;;5114976;28;20640;-65
2022/01/07 01:20:48;;;;;;;11.45;4.80;;;;;;;;;;5115111;28;20187;-67
2022/01/07 01:23:15;;;;;;;6.78;4.65;;;;;;;;;;5114787;28;20684;-66
2022/01/07 01:25:42;;;;;;;10.25;4.70;;;;;;;;;;5115751;28;20222;-65
2022/01/07 01:28:09;;;;;;;11.63;5.40;;;;;;;;;;5114659;28;20202;-66
2022/01/07 01:30:38;;;;;;;10.30;5.50;;;;;;;;;;5115130;28;20276;-65
2022/01/07 01:33:05;;;;;;;7.88;4.25;;;;;;;;;;5115364;28;20241;-66
2022/01/07 01:35:35;;;;;;;10.48;5.88;;;;;;;;;;5114974;28;20707;-65
2022/01/07 01:38:02;;;;;;;11.73;4.95;;;;;;;;;;5114942;28;20228;-66
2022/01/07 01:40:30;;;;;;;10.30;4.80;;;;;;;;;;5115231;28;20221;-65
2022/01/07 01:42:57;;;;;;;8.27;5.72;;;;;;;;;;5113980;28;20562;-66
2022/01/07 01:45:25;;;;;;;14.25;5.97;;;;;;;;;;5115043;28;20194;-65
2022/01/07 01:47:54;;;;;;;7.88;4.05;;;;;;;;;;5115630;28;20223;-66
2022/01/07 01:50:21;;;;;;;15.27;4.50;;;;;;;;;;5115177;28;20258;-66
2022/01/07 01:52:50;;;;;;;9.23;5.00;;;;;;;;;;5115056;28;20290;-66
2022/01/07 01:55:18;;;;;;;9.75;4.57;;;;;;;;;;5115904;28;20234;-66
2022/01/07 01:57:45;;;;;;;11.70;6.10;;;;;;;;;;5114875;28;20233;-66
2022/01/07 02:00:13;;;;;;;12.10;5.22;;;;;;;;;;5114440;28;20276;-66
2022/01/07 02:02:41;;;;;;;8.35;5.18;;;;;;;;;;5114220;28;20301;-67
2022/01/07 02:05:10;;;;;;;26.23;4.90;;;;;;;;;;5115144;28;20745;-66
2022/01/07 02:07:39;;;;;;;7.65;4.32;;;;;;;;;;5114013;28;20280;-66
2022/01/07 02:10:08;;;;;;;16.13;4.72;;;;;;;;;;5114093;28;20243;-66
2022/01/07 02:12:36;;;;;;;6.63;4.75;;;;;;;;;;5114217;28;20247;-65
2022/01/07 02:15:03;;;;;;;13.27;4.90;;;;;;;;;;5114203;28;20218;-66
2022/01/07 02:17:30;;;;;;;10.20;4.95;;;;;;;;;;5115220;28;20214;-66
2022/01/07 02:19:59;;;;;;;11.65;4.10;;;;;;;;;;5117163;28;20624;-65
2022/01/07 02:22:26;;;;;;;6.75;3.20;;;;;;;;;;5116966;28;20305;-66
2022/01/07 02:24:54;;;;;;;6.93;4.20;;;;;;;;;;5115032;28;20201;-66
2022/01/07 02:27:21;;;;;;;9.88;4.38;;;;;;;;;;5115264;28;20226;-66
2022/01/07 02:29:50;;;;;;;10.73;5.00;;;;;;;;;;5114263;28;20282;-65
2022/01/07 02:32:18;;;;;;;9.70;5.22;;;;;;;;;;5114388;28;20225;-66
2022/01/07 02:34:45;;;;;;;16.85;6.00;;;;;;;;;;5113864;28;20189;-66
2022/01/07 02:37:14;;;;;;;10.05;5.25;;;;;;;;;;5114804;28;20222;-65
2022/01/07 02:39:42;;;;;;;13.05;4.40;;;;;;;;;;5114278;28;20193;-66
2022/01/07 02:42:10;;;;;;;4.97;4.05;;;;;;;;;;5114291;28;20257;-65
2022/01/07 02:44:37;;;;;;;6.65;4.85;;;;;;;;;;5114078;28;20202;-65
2022/01/07 02:47:04;;;;;;;10.60;5.57;;;;;;;;;;5115006;28;20276;-66
2022/01/07 02:49:32;;;;;;;10.82;5.15;;;;;;;;;;5114095;28;20231;-66
2022/01/07 02:51:59;;;;;;;8.93;5.15;;;;;;;;;;5114193;28;20283;-65
2022/01/07 02:54:28;;;;;;;7.72;4.78;;;;;;;;;;5116414;28;20220;-65
2022/01/07 02:56:55;;;;;;;8.80;4.43;;;;;;;;;;5118819;28;20194;-65
2022/01/07 02:59:22;;;;;;;10.02;5.65;;;;;;;;;;5118871;28;20273;-65
2022/01/07 03:01:49;;;;;;;5.88;4.90;;;;;;;;;;5118050;28;20191;-65
2022/01/07 03:04:17;;;;;;;10.02;6.22;;;;;;;;;;5118623;28;20322;-66
2022/01/07 03:06:44;;;;;;;8.68;5.10;;;;;;;;;;5118350;28;20278;-66
2022/01/07 03:09:12;;;;;;;5.45;4.60;;;;;;;;;;5118103;28;20283;-66
2022/01/07 03:11:40;;;;;;;8.70;4.90;;;;;;;;;;5117962;28;20276;-65
2022/01/07 03:14:08;;;;;;;10.60;7.88;;;;;;;;;;5118316;28;20190;-65
2022/01/07 03:16:35;;;;;;;7.47;4.72;;;;;;;;;;5118010;28;20220;-66
2022/01/07 03:19:02;;;;;;;9.32;5.50;;;;;;;;;;5117869;28;20192;-66
2022/01/07 03:21:29;;;;;;;13.70;4.90;;;;;;;;;;5118002;28;20346;-66
2022/01/07 03:23:57;;;;;;;12.02;4.85;;;;;;;;;;5117855;28;20753;-64
2022/01/07 03:26:24;;;;;;;8.00;4.85;;;;;;;;;;5117769;28;20285;-65
2022/01/07 03:28:52;;;;;;;8.50;4.75;;;;;;;;;;5118328;28;20232;-65
2022/01/07 03:31:20;;;;;;;14.27;5.78;;;;;;;;;;5117582;28;20282;-65
2022/01/07 03:33:47;;;;;;;9.77;4.72;;;;;;;;;;5117723;28;20222;-64
2022/01/07 03:36:14;;;;;;;11.93;5.80;;;;;;;;;;5117798;28;20610;-64
2022/01/07 03:38:41;;;;;;;7.95;6.18;;;;;;;;;;5117332;28;20195;-65
2022/01/07 03:41:09;;;;;;;10.82;5.97;;;;;;;;;;5117914;28;20197;-65
2022/01/07 03:43:36;;;;;;;6.75;5.40;;;;;;;;;;5117449;28;20326;-65
2022/01/07 03:46:04;;;;;;;7.15;5.65;;;;;;;;;;5117679;28;20193;-65
2022/01/07 03:48:32;;;;;;;8.48;5.03;;;;;;;;;;5117863;28;20276;-64
2022/01/07 03:50:59;;;;;;;11.70;6.00;;;;;;;;;;5116861;28;20276;-64
2022/01/07 03:53:26;;;;;;;10.77;6.75;;;;;;;;;;5117269;28;20230;-64
2022/01/07 03:55:54;;;;;;;9.30;6.03;;;;;;;;;;5117276;28;20191;-65
2022/01/07 03:58:21;;;;;;;10.82;5.40;;;;;;;;;;5117263;28;20278;-64
2022/01/07 04:00:49;;;;;;;8.60;5.60;;;;;;;;;;5117773;28;20276;-65
2022/01/07 04:03:18;;;;;;;13.15;6.05;;;;;;;;;;5116792;28;20232;-65
2022/01/07 04:05:46;;;;;;;11.15;6.05;;;;;;;;;;5115964;28;20270;-64
2022/01/07 04:08:13;;;;;;;10.93;6.30;;;;;;;;;;5116904;28;20193;-65
2022/01/07 04:10:41;;;;;;;9.52;6.40;;;;;;;;;;5117033;28;20718;-65
2022/01/07 04:13:08;;;;;;;11.57;6.00;;;;;;;;;;5117388;28;20225;-65
2022/01/07 04:15:35;;;;;;;8.38;5.63;;;;;;;;;;5116722;28;20651;-65
2022/01/07 04:18:03;;;;;;;13.50;6.57;;;;;;;;;;5117139;28;20283;-65
2022/01/07 04:20:32;;;;;;;7.25;6.20;;;;;;;;;;5116802;28;20733;-67
2022/01/07 04:23:00;;;;;;;14.18;6.20;;;;;;;;;;5116438;28;20260;-65
2022/01/07 04:25:28;;;;;;;16.42;6.78;;;;;;;;;;5117339;28;20294;-66
2022/01/07 04:27:58;;;;;;;9.93;6.25;;;;;;;;;;5116970;28;20196;-65
2022/01/07 04:30:26;;;;;;;10.18;6.30;;;;;;;;;;5117144;28;20186;-66
2022/01/07 04:32:54;;;;;;;13.40;6.85;;;;;;;;;;5116534;28;20193;-65
2022/01/07 04:35:21;;;;;;;10.63;6.03;;;;;;;;;;5116980;28;20194;-65
2022/01/07 04:37:50;;;;;;;13.82;6.68;;;;;;;;;;5118076;28;20544;-65
2022/01/07 04:40:18;;;;;;;9.85;6.95;;;;;;;;;;5116929;28;20280;-65
2022/01/07 04:42:46;;;;;;;9.43;5.60;;;;;;;;;;5117222;28;20235;-65
2022/01/07 04:45:14;;;;;;;9.90;6.00;;;;;;;;;;5116135;28;20386;-65
2022/01/07 04:47:42;;;;;;;11.57;7.22;;;;;;;;;;5115941;28;20238;-65
2022/01/07 04:50:11;;;;;;;11.32;6.03;;;;;;;;;;5116403;28;20730;-65
2022/01/07 04:52:40;;;;;;;12.15;7.40;;;;;;;;;;5116755;28;20281;-65
2022/01/07 04:55:10;;;;;;;12.63;6.38;;;;;;;;;;5116339;28;20240;-65
2022/01/07 04:57:37;;;;;;;8.52;7.00;;;;;;;;;;5116074;28;20244;-65
2022/01/07 05:00:05;;;;;;;7.78;6.25;;;;;;;;;;5115819;28;20276;-65
2022/01/07 05:02:32;;;;;;;17.23;6.80;;;;;;;;;;5115488;28;20241;-65
2022/01/07 05:04:59;;;;;;;11.00;7.28;;;;;;;;;;5116139;28;20257;-65
2022/01/07 05:07:26;;;;;;;10.68;6.82;;;;;;;;;;5116975;28;20285;-65
2022/01/07 05:09:54;;;;;;;9.55;6.60;;;;;;;;;;5117003;28;20533;-64
2022/01/07 05:12:22;;;;;;;10.00;6.30;;;;;;;;;;5116181;28;20287;-65
2022/01/07 05:14:50;;;;;;;9.27;7.53;;;;;;;;;;5117255;28;20279;-64
2022/01/07 05:17:17;;;;;;;11.77;6.78;;;;;;;;;;5115942;28;20193;-63
2022/01/07 05:19:44;;;;;;;10.93;6.80;;;;;;;;;;5115098;28;20221;-64
2022/01/07 05:22:12;;;;;;;13.18;7.65;;;;;;;;;;5115135;28;20220;-63
2022/01/07 05:24:39;;;;;;;11.45;7.80;;;;;;;;;;5114959;28;20296;-64
2022/01/07 05:27:06;;;;;;;10.75;7.82;;;;;;;;;;5114965;28;20190;-63
2022/01/07 05:29:35;;;;;;;11.38;6.50;;;;;;;;;;5114474;28;20225;-64
2022/01/07 05:32:02;;;;;;;9.57;6.10;;;;;;;;;;5114321;28;20193;-64
2022/01/07 05:34:30;;;;;;;13.88;7.38;;;;;;;;;;5114462;28;20202;-63
2022/01/07 05:36:57;;;;;;;10.57;6.07;;;;;;;;;;5114444;28;20228;-64
2022/01/07 05:39:24;;;;;;;11.30;7.15;;;;;;;;;;5114348;28;20228;-63
2022/01/07 05:41:52;;;;;;;12.27;6.65;;;;;;;;;;5114491;28;20188;-63
2022/01/07 05:44:19;;;;;;;14.38;8.50;;;;;;;;;;5115335;28;20307;-63
2022/01/07 05:46:48;;;;;;;11.38;6.82;;;;;;;;;;5117798;28;20181;-63
2022/01/07 05:49:15;;;;;;;8.68;6.75;;;;;;;;;;5114689;28;20280;-64
2022/01/07 05:51:42;;;;;;;7.50;5.95;;;;;;;;;;5115263;28;20222;-63
2022/01/07 05:54:10;;;;;;;10.88;6.78;;;;;;;;;;5116837;28;20292;-64
2022/01/07 05:56:37;;;;;;;9.02;6.85;;;;;;;;;;5118141;28;20225;-64
2022/01/07 05:59:04;;;;;;;10.88;5.65;;;;;;;;;;5119091;28;20249;-63
2022/01/07 06:01:32;;;;;;;12.95;6.95;;;;;;;;;;5117016;28;20227;-63
2022/01/07 06:04:00;;;;;;;14.43;6.88;;;;;;;;;;5116543;28;20290;-63
2022/01/07 06:06:28;;;;;;;10.85;6.10;;;;;;;;;;5115001;28;20638;-64
2022/01/07 06:08:55;;;;;;;11.93;5.93;;;;;;;;;;5114651;28;20194;-64
2022/01/07 06:11:22;;;;;;;11.27;6.72;;;;;;;;;;5114908;28;20229;-64
2022/01/07 06:13:50;;;;;;;9.82;6.00;;;;;;;;;;5113477;28;20546;-63
2022/01/07 06:16:17;;;;;;;9.07;6.32;;;;;;;;;;5113900;28;20281;-63
2022/01/07 06:18:51;;;;;;;11.52;6.60;;;;;;;;;;5114432;28;20280;-64
2022/01/07 06:21:20;;;;;;;8.13;5.28;;;;;;;;;;5114282;28;20177;-63
2022/01/07 06:23:47;;;;;;;9.88;7.70;;;;;;;;;;5115212;28;20223;-71
2022/01/07 06:26:14;;;;;;;13.65;5.82;;;;;;;;;;5116404;28;20257;-64
2022/01/07 06:28:42;;;;;;;12.18;6.03;;;;;;;;;;5114273;28;20194;-63
2022/01/07 06:31:09;;;;;;;8.90;6.57;;;;;;;;;;5115024;28;20229;-64
2022/01/07 06:33:36;;;;;;;10.65;6.80;;;;;;;;;;5115893;28;20232;-62
2022/01/07 06:36:04;;;;;;;9.63;6.13;;;;;;;;;;5115592;28;20193;-64
2022/01/07 06:38:32;;;;;;;11.35;6.10;;;;;;;;;;5114590;28;20292;-64
2022/01/07 06:40:59;;;;;;;10.35;6.47;;;;;;;;;;5114638;28;20247;-63
2022/01/07 06:43:27;;;;;;;12.25;6.22;;;;;;;;;;5113800;28;20733;-63
2022/01/07 06:45:54;;;;;;;10.02;6.35;;;;;;;;;;5114362;28;20292;-63
2022/01/07 06:48:21;;;;;;;7.80;6.18;;;;;;;;;;5113912;28;20226;-64
2022/01/07 06:50:48;;;;;;;9.77;6.97;;;;;;;;;;5114216;28;20276;-63
2022/01/07 06:53:16;;;;;;;7.90;5.47;;;;;;;;;;5114928;28;20277;-63
2022/01/07 06:55:44;;;;;;;21.65;7.85;;;;;;;;;;5113950;28;20234;-63
2022/01/07 06:58:11;;;;;;;17.50;8.10;;;;;;;;;;5113838;28;20658;-64
2022/01/07 07:00:39;;;;;;;12.13;7.32;;;;;;;;;;5114051;28;20239;-63
2022/01/07 07:03:06;;;;;;;10.27;5.95;;;;;;;;;;5113737;28;20275;-63
2022/01/07 07:05:33;;;;;;;8.40;5.75;;;;;;;;;;5114658;28;20689;-63
2022/01/07 07:08:00;;;;;;;9.60;6.70;;;;;;;;;;5113951;28;20193;-64
2022/01/07 07:10:28;;;;;;;8.32;4.20;;;;;;;;;;5114331;28;20221;-64
2022/01/07 07:12:56;;;;;;;7.20;6.45;;;;;;;;;;5114314;28;20280;-63
2022/01/07 07:15:23;;;;;;;8.68;6.35;;;;;;;;;;5114396;28;20272;-63
2022/01/07 07:17:51;;;;;;;6.90;6.18;;;;;;;;;;5114243;28;20196;-64
2022/01/07 07:20:18;;;;;;;7.18;5.82;;;;;;;;;;5113646;28;20713;-64
2022/01/07 07:22:45;;;;;;;10.68;6.55;;;;;;;;;;5113975;28;20197;-63
2022/01/07 07:25:13;;;;;;;10.25;6.60;;;;;;;;;;5114066;28;20246;-64
2022/01/07 07:27:41;;;;;;;7.00;6.25;;;;;;;;;;5114498;28;20220;-63
2022/01/07 07:30:11;;;;;;;10.77;7.22;;;;;;;;;;5114403;28;20201;-64
2022/01/07 07:32:39;;;;;;;10.90;7.45;;;;;;;;;;5113827;28;20183;-64
2022/01/07 07:36:26;;;;;;;11.27;6.70;;;;;;;;;;5113242;28;20195;-64
2022/01/07 07:38:01;;;;;;;11.38;7.00;;;;;;;;;;5113704;28;20186;-64
2022/01/07 07:40:29;;;;;;;12.13;6.85;;;;;;;;;;5114008;28;20196;-64
2022/01/07 07:42:56;;;;;;;7.55;6.78;;;;;;;;;;5117541;28;20193;-64
2022/01/07 07:45:24;;;;;;;9.23;7.57;;;;;;;;;;5117640;28;20300;-64
2022/01/07 07:47:52;;;;;;;14.25;7.82;;;;;;;;;;5117907;28;20262;-64
2022/01/07 07:50:19;;;;;;;11.50;7.65;;;;;;;;;;5117876;28;20296;-63
2022/01/07 07:52:46;;;;;;;10.93;7.82;;;;;;;;;;5117196;28;20276;-65
2022/01/07 07:55:13;;;;;;;16.88;6.80;;;;;;;;;;5117288;28;20282;-64
2022/01/07 07:57:41;;;;;;;10.45;7.57;;;;;;;;;;5117438;28;20276;-63
2022/01/07 08:00:08;;;;;;;9.55;7.15;;;;;;;;;;5117281;28;20271;-63
2022/01/07 08:02:37;;;;;;;9.00;7.30;;;;;;;;;;5117266;28;20606;-63
2022/01/07 08:05:04;;;;;;;12.73;6.82;;;;;;;;;;5117372;28;20283;-63
2022/01/07 08:07:32;;;;;;;15.43;9.38;;;;;;;;;;5117374;28;20362;-64
2022/01/07 08:09:59;;;;;;;8.60;7.75;;;;;;;;;;5116923;28;20276;-64
2022/01/07 08:12:39;;;;;;;7.93;7.13;;;;;;;;;;5116599;28;20234;-64
2022/01/07 08:17:53;;;;;;;10.90;8.57;;;;;;;;;;5116811;28;20220;-64
2022/01/07 08:20:20;;;;;;;14.20;10.35;;;;;;;;;;5116920;28;20220;-63
2022/01/07 08:22:47;;;;;;;9.30;8.40;;;;;;;;;;5116579;28;20277;-64
2022/01/07 08:25:14;;;;;;;10.13;8.43;;;;;;;;;;5116853;28;20304;-62
2022/01/07 08:27:42;;;;;;;9.88;8.88;;;;;;;;;;5116834;28;20264;-63
2022/01/07 08:30:15;;;;;;;12.07;9.85;;;;;;;;;;5116869;28;20273;-63
2022/01/07 08:35:29;;;;;;;12.52;9.95;;;;;;;;;;5116684;28;20223;-63
2022/01/07 08:37:56;;;;;;;16.50;10.25;;;;;;;;;;5116513;28;20282;-63
2022/01/07 08:40:23;;;;;;;11.80;10.18;;;;;;;;;;5116553;28;20272;-63
2022/01/07 08:42:52;;;;;;;14.90;10.15;;;;;;;;;;5116840;28;20272;-63
2022/01/07 08:45:19;;;;;;;12.23;10.40;;;;;;;;;;5116443;28;20678;-63
2022/01/07 08:47:47;;;;;;;14.35;11.23;;;;;;;;;;5116927;28;20288;-63
2022/01/07 08:50:14;;;;;;;12.43;11.18;;;;;;;;;;5117124;28;20278;-63
2022/01/07 08:52:42;;;;;;;15.13;12.27;;;;;;;;;;5115762;28;20220;-63
2022/01/07 08:55:10;;;;;;;21.48;13.15;;;;;;;;;;5116044;28;20242;-63
2022/01/07 08:57:37;;;;;;;22.00;13.70;;;;;;;;;;5116682;28;20223;-63
2022/01/07 09:00:05;;;;;;;12.60;11.00;;;;;;;;;;5116443;28;20190;-63
2022/01/07 09:02:32;;;;;;;19.52;10.07;;;;;;;;;;5116233;28;20189;-63
2022/01/07 09:04:59;;;;;;;16.17;11.77;;;;;;;;;;5116266;28;20423;-63
2022/01/07 09:07:27;;;;;;;19.02;10.90;;;;;;;;;;5115938;28;20281;-63
2022/01/07 09:09:55;;;;;;;16.58;12.32;;;;;;;;;;5116379;28;20225;-64
2022/01/07 09:12:23;;;;;;;21.20;14.38;;;;;;;;;;5116159;28;20193;-64
2022/01/07 09:14:50;;;;;;;19.35;13.00;;;;;;;;;;5116123;28;20611;-64
2022/01/07 09:17:17;;;;;;;23.00;13.10;;;;;;;;;;5116052;28;20233;-64
2022/01/07 09:19:44;;;;;;;17.83;12.73;;;;;;;;;;5115930;28;20185;-63
2022/01/07 09:22:12;;;;;;;15.93;14.23;;;;;;;;;;5115204;28;20197;-63
2022/01/07 09:24:39;;;;;;;17.75;13.45;;;;;;;;;;5115013;28;20297;-64
2022/01/07 09:27:07;;;;;;;19.65;13.63;;;;;;;;;;5115033;28;20229;-63
2022/01/07 09:29:35;;;;;;;16.85;13.43;;;;;;;;;;5114548;28;20272;-64
2022/01/07 09:32:02;;;;;;;20.13;13.07;;;;;;;;;;5114886;28;20280;-63
2022/01/07 09:34:29;;;;;;;18.02;13.90;;;;;;;;;;5114930;28;20238;-67
2022/01/07 09:36:56;;;;;;;13.98;12.57;;;;;;;;;;5114533;28;20796;-64
2022/01/07 09:39:24;;;;;;;15.85;11.80;;;;;;;;;;5114526;28;20226;-63
2022/01/07 09:41:51;;;;;;;16.50;12.10;;;;;;;;;;5115041;28;20285;-63
2022/01/07 09:44:20;;;;;;;18.08;13.20;;;;;;;;;;5114514;28;20209;-64
2022/01/07 09:46:47;;;;;;;20.90;12.80;;;;;;;;;;5114502;28;20278;-63
2022/01/07 09:49:14;;;;;;;17.25;12.40;;;;;;;;;;5114949;28;20280;-64
2022/01/07 09:51:42;;;;;;;19.15;14.00;;;;;;;;;;5114900;28;20190;-64
2022/01/07 09:54:10;;;;;;;13.88;11.90;;;;;;;;;;5114967;28;20609;-64
2022/01/07 09:56:39;;;;;;;18.85;12.05;;;;;;;;;;5114276;28;20230;-63
2022/01/07 09:59:07;;;;;;;18.17;11.65;;;;;;;;;;5114657;28;20230;-63
2022/01/07 10:01:49;;;;;;;13.93;11.70;;;;;;;;;;5114537;28;20241;-63
2022/01/07 10:04:27;;;;;;;16.85;11.25;;;;;;;;;;5114073;28;20312;-64
2022/01/07 10:07:10;;;;;;;10.85;9.18;;;;;;;;;;5115447;28;20261;-64
2022/01/07 10:09:37;;;;;;;19.88;12.13;;;;;;;;;;5114966;28;20298;-63
2022/01/07 10:12:06;;;;;;;19.58;12.40;;;;;;;;;;5114377;28;20284;-63
2022/01/07 10:14:34;;;;;;;13.15;10.25;;;;;;;;;;5114594;28;20198;-63
2022/01/07 10:17:02;;;;;;;12.85;11.48;;;;;;;;;;5115104;28;20279;-63
2022/01/07 10:19:35;;;;;;;16.15;11.52;;;;;;;;;;5114497;28;20672;-64
2022/01/07 10:22:05;;;;;;;13.05;9.85;;;;;;;;;;5114528;28;20725;-63
2022/01/07 10:24:33;;;;;;;13.90;10.65;;;;;;;;;;5114649;28;20242;-63
2022/01/07 10:27:10;;;;;;;12.15;9.38;;;;;;;;;;5114649;28;20274;-63
2022/01/07 10:29:39;;;;;;;10.35;9.35;;;;;;;;;;5114969;28;20179;-63
2022/01/07 10:32:26;;;;;;;13.10;8.95;;;;;;;;;;5115144;28;20230;-63
2022/01/07 10:35:06;;;;;;;12.00;10.38;;;;;;;;;;5115257;28;20246;-63
2022/01/07 10:37:33;;;;;;;14.38;9.93;;;;;;;;;;5116319;28;20511;-64
2022/01/07 10:40:00;;;;;;;14.98;10.32;;;;;;;;;;5114391;28;20242;-63
2022/01/07 10:42:28;;;;;;;10.68;8.48;;;;;;;;;;5114622;28;20222;-63
2022/01/07 10:44:59;;;;;;;14.77;11.23;;;;;;;;;;5114748;28;20562;-63
2022/01/07 10:47:28;;;;;;;12.05;10.85;;;;;;;;;;5114760;28;20195;-63
2022/01/07 10:50:13;;;;;;;15.27;9.55;;;;;;;;;;5115352;28;20195;-63
2022/01/07 10:52:42;;;;;;;10.95;9.85;;;;;;;;;;5115697;28;20174;-64
2022/01/07 10:55:10;;;;;;;8.75;7.85;;;;;;;;;;5115259;28;20191;-63
2022/01/07 10:57:38;;;;;;;15.95;10.82;;;;;;;;;;5114281;28;20198;-64
2022/01/07 11:00:06;;;;;;;17.55;10.15;;;;;;;;;;5114945;28;20202;-63
2022/01/07 11:02:34;;;;;;;13.05;10.95;;;;;;;;;;5114398;28;20239;-64
2022/01/07 11:05:01;;;;;;;14.82;10.52;;;;;;;;;;5114881;28;20222;-63
2022/01/07 11:07:29;;;;;;;15.07;10.90;;;;;;;;;;5115027;28;20341;-63
2022/01/07 11:09:58;;;;;;;16.35;10.40;;;;;;;;;;5114463;28;20203;-63
2022/01/07 11:12:26;;;;;;;17.33;11.50;;;;;;;;;;5114746;28;20240;-64
2022/01/07 11:14:53;;;;;;;14.65;10.90;;;;;;;;;;5114857;28;20714;-64
2022/01/07 11:17:21;;;;;;;13.45;10.15;;;;;;;;;;5117843;28;20699;-65
2022/01/07 11:19:52;;;;;;;11.55;10.35;;;;;;;;;;5118652;28;20197;-63
2022/01/07 11:22:21;;;;;;;11.52;10.32;;;;;;;;;;5118492;28;20195;-63
2022/01/07 11:24:50;;;;;;;14.20;10.40;;;;;;;;;;5117860;28;20228;-63
2022/01/07 11:27:21;;;;;;;14.80;10.45;;;;;;;;;;5118029;28;20193;-64
2022/01/07 11:30:04;;;;;;;13.02;9.85;;;;;;;;;;5117609;28;20205;-64
2022/01/07 11:32:34;;;;;;;11.07;10.05;;;;;;;;;;5116911;28;20190;-64
2022/01/07 11:35:20;;;;;;;12.48;11.25;;;;;;;;;;5117678;28;20234;-64
2022/01/07 11:37:48;;;;;;;11.85;10.45;;;;;;;;;;5118025;28;20236;-64
2022/01/07 11:40:43;;;;;;;11.07;9.73;;;;;;;;;;5118324;28;20191;-64
2022/01/07 11:43:29;;;;;;;14.05;9.63;;;;;;;;;;5118986;28;20556;-64
2022/01/07 11:45:57;;;;;;;13.95;9.70;;;;;;;;;;5118157;28;20225;-63
2022/01/07 11:48:27;;;;;;;10.65;9.55;;;;;;;;;;5118301;28;20193;-63
2022/01/07 11:51:09;;;;;;;10.15;9.15;;;;;;;;;;5117967;28;20203;-63
2022/01/07 11:53:51;;;;;;;11.02;9.57;;;;;;;;;;5118732;28;20216;-63
2022/01/07 11:56:19;;;;;;;15.63;11.68;;;;;;;;;;5116179;28;20204;-63
2022/01/07 11:58:51;;;;;;;16.17;10.93;;;;;;;;;;5117118;28;20280;-63
2022/01/07 12:01:25;;;;;;;11.05;9.95;;;;;;;;;;5117371;28;20184;-64
2022/01/07 12:03:54;;;;;;;12.80;10.65;;;;;;;;;;5118082;28;20255;-64
2022/01/07 12:06:39;;;;;;;11.27;9.57;;;;;;;;;;5117182;28;20249;-64
2022/01/07 12:09:11;;;;;;;12.55;9.90;;;;;;;;;;5116631;28;20195;-64
2022/01/07 12:11:40;;;;;;;10.80;9.68;;;;;;;;;;5118383;28;20195;-64
2022/01/07 12:14:10;;;;;;;10.43;9.32;;;;;;;;;;5117301;28;20278;-64
2022/01/07 12:16:39;;;;;;;12.50;10.82;;;;;;;;;;5117643;28;20214;-63
2022/01/07 12:19:28;;;;;;;13.82;10.80;;;;;;;;;;5118779;28;20725;-63
2022/01/07 12:21:57;;;;;;;11.23;8.43;;;;;;;;;;5119868;28;20716;-63
2022/01/07 12:24:25;;;;;;;11.20;10.10;;;;;;;;;;5118302;28;20282;-63
2022/01/07 12:27:02;;;;;;;12.00;10.80;;;;;;;;;;5116203;28;20691;-64
2022/01/07 12:29:31;;;;;;;15.00;11.57;;;;;;;;;;5117873;28;20200;-63
2022/01/07 12:32:02;;;;;;;13.20;11.32;;;;;;;;;;5118463;28;20222;-63
2022/01/07 12:34:30;;;;;;;12.40;11.30;;;;;;;;;;5120548;28;20191;-63
2022/01/07 12:36:58;;;;;;;16.88;12.38;;;;;;;;;;5117755;28;20245;-63
2022/01/07 12:39:27;;;;;;;10.40;9.27;;;;;;;;;;5117455;28;20673;-63
2022/01/07 12:41:54;;;;;;;13.73;11.20;;;;;;;;;;5117377;28;20187;-64
2022/01/07 12:44:22;;;;;;;12.00;10.50;;;;;;;;;;5116905;28;20190;-64
2022/01/07 12:46:54;;;;;;;14.35;12.90;;;;;;;;;;5116673;28;20252;-64
2022/01/07 12:49:33;;;;;;;12.45;10.27;;;;;;;;;;5116878;28;20195;-64
2022/01/07 12:52:01;;;;;;;12.35;11.23;;;;;;;;;;5117950;28;20180;-63
2022/01/07 12:54:32;;;;;;;12.88;10.55;;;;;;;;;;5117201;28;20192;-63
2022/01/07 12:56:59;;;;;;;12.15;11.10;;;;;;;;;;5117318;28;20184;-64
2022/01/07 12:59:29;;;;;;;11.43;10.32;;;;;;;;;;5116589;28;20287;-63
2022/01/07 13:01:57;;;;;;;13.32;10.95;;;;;;;;;;5117228;28;20616;-63
2022/01/07 13:04:25;;;;;;;12.75;10.75;;;;;;;;;;5116063;28;20309;-64
2022/01/07 13:06:54;;;;;;;13.52;10.90;;;;;;;;;;5117034;28;20265;-64
2022/01/07 13:09:22;;;;;;;13.65;10.60;;;;;;;;;;5116694;28;20250;-63
2022/01/07 13:11:50;;;;;;;11.48;10.32;;;;;;;;;;5116583;28;20227;-65
2022/01/07 13:14:17;;;;;;;11.75;10.10;;;;;;;;;;5117643;28;20191;-70
2022/01/07 13:16:45;;;;;;;11.98;10.77;;;;;;;;;;5117904;28;20218;-65
2022/01/07 13:19:14;;;;;;;14.80;9.75;;;;;;;;;;5117012;28;20736;-64
2022/01/07 13:21:43;;;;;;;12.18;10.98;;;;;;;;;;5117617;28;20189;-64
2022/01/07 13:24:14;;;;;;;13.52;11.57;;;;;;;;;;5116811;28;20191;-65
2022/01/07 13:26:42;;;;;;;14.20;11.05;;;;;;;;;;5114655;28;20239;-65
2022/01/07 13:29:22;;;;;;;10.30;8.38;;;;;;;;;;5115501;28;20185;-65
2022/01/07 13:31:51;;;;;;;13.43;10.90;;;;;;;;;;5115357;28;20184;-64
2022/01/07 13:34:25;;;;;;;10.95;9.95;;;;;;;;;;5115752;28;20199;-65
2022/01/07 13:36:53;;;;;;;15.48;10.73;;;;;;;;;;5117162;28;20192;-65
2022/01/07 13:39:22;;;;;;;14.68;9.10;;;;;;;;;;5118812;28;20227;-64
2022/01/07 13:41:56;;;;;;;11.05;8.60;;;;;;;;;;5118330;28;20650;-65
2022/01/07 13:44:24;;;;;;;14.55;9.65;;;;;;;;;;5115556;28;20188;-65
2022/01/07 13:46:52;;;;;;;10.82;9.00;;;;;;;;;;5115543;28;20237;-65
2022/01/07 13:49:19;;;;;;;15.65;8.88;;;;;;;;;;5116071;28;20223;-64
2022/01/07 13:51:56;;;;;;;11.20;9.48;;;;;;;;;;5115681;28;20249;-65
2022/01/07 13:54:25;;;;;;;10.15;7.47;;;;;;;;;;5115914;28;20196;-65
2022/01/07 13:57:03;;;;;;;13.35;8.05;;;;;;;;;;5115736;28;20197;-65
2022/01/07 13:59:44;;;;;;;9.70;8.70;;;;;;;;;;5115696;28;20208;-64
2022/01/07 14:02:16;;;;;;;13.20;8.52;;;;;;;;;;5115696;28;20640;-65
2022/01/07 14:04:44;;;;;;;10.70;8.52;;;;;;;;;;5115004;28;20774;-66
2022/01/07 14:07:30;;;;;;;11.20;8.32;;;;;;;;;;5115227;28;20215;-65
2022/01/07 14:10:11;;;;;;;8.68;7.78;;;;;;;;;;5114693;28;20180;-64
2022/01/07 14:12:40;;;;;;;8.05;7.32;;;;;;;;;;5115296;28;20195;-65
2022/01/07 14:15:09;;;;;;;10.23;8.05;;;;;;;;;;5114730;28;20220;-64
2022/01/07 14:17:36;;;;;;;9.40;7.90;;;;;;;;;;5115220;28;20248;-64
2022/01/07 14:20:05;;;;;;;8.13;7.32;;;;;;;;;;5115354;28;20272;-64
2022/01/07 14:22:39;;;;;;;10.50;6.90;;;;;;;;;;5115306;28;20197;-65
2022/01/07 14:25:06;;;;;;;7.85;7.10;;;;;;;;;;5115076;28;20195;-65
2022/01/07 14:27:34;;;;;;;7.63;6.90;;;;;;;;;;5115035;28;20713;-64
2022/01/07 14:30:01;;;;;;;13.95;7.55;;;;;;;;;;5115146;28;20199;-65
2022/01/07 14:32:29;;;;;;;9.65;6.85;;;;;;;;;;5116094;28;20283;-66
2022/01/07 14:35:02;;;;;;;8.32;7.50;;;;;;;;;;5115232;28;20675;-65
2022/01/07 14:37:30;;;;;;;11.57;7.85;;;;;;;;;;5115690;28;20559;-65
2022/01/07 14:39:59;;;;;;;10.07;7.80;;;;;;;;;;5116569;28;20217;-65
2022/01/07 14:42:33;;;;;;;13.57;7.87;;;;;;;;;;5116106;28;20709;-65
2022/01/07 14:45:00;;;;;;;14.80;8.85;;;;;;;;;;5113845;28;20516;-65
2022/01/07 14:47:28;;;;;;;9.95;8.13;;;;;;;;;;5114653;28;20336;-64